Thurston, Ohio
Current Conditions -  °F | °C
As of 2:53 PM on Sunday 21 Dec 2014 (Local Time) from KLHQ Reporting Station
Clear Clear  
Wind Chill: 52°   Ceiling: Unl
Heat Index: 52°   Visibility: 9mi
Dew Point: 24°   Wind: 3mph
Humidity: 34%   Direction: 70°ENE
Pressure: 30.21"   Gusts: NA
Location:  39.84°N, 82.55°W
Report Text: KLHQ 211953Z AUTO 07003KT 9SM CLR 11/M04 A3021 RMK AO2 SLP236 T01111044
Loading
Personal Weather Stations






























Interactive Weather Map New forecast layout! Learn more

10-Day Weather Forecast

Advertisements
Track Severe Weather on mobile